createdAt,value
2018-02-20T00:02:18.922Z,-4.20
2018-02-20T00:04:46.442Z,-4.20
2018-02-20T00:07:13.988Z,-4.20
2018-02-20T00:09:41.509Z,-4.20
2018-02-20T00:12:09.030Z,-4.20
2018-02-20T00:14:37.336Z,-4.30
2018-02-20T00:17:04.858Z,-4.30
2018-02-20T00:19:32.398Z,-4.30
2018-02-20T00:21:59.922Z,-4.30
2018-02-20T00:24:27.475Z,-4.30
2018-02-20T00:26:54.989Z,-4.30
2018-02-20T00:29:22.525Z,-4.40
2018-02-20T00:31:50.055Z,-4.40
2018-02-20T00:34:17.598Z,-4.40
2018-02-20T00:36:45.886Z,-4.40
2018-02-20T00:39:14.194Z,-4.50
2018-02-20T00:41:41.715Z,-4.50
2018-02-20T00:44:10.022Z,-4.60
2018-02-20T00:46:37.545Z,-4.60
2018-02-20T00:49:05.831Z,-4.60
2018-02-20T00:51:34.141Z,-4.60
2018-02-20T00:54:01.663Z,-4.60
2018-02-20T00:56:29.969Z,-4.60
2018-02-20T00:58:57.493Z,-4.60
2018-02-20T01:01:25.038Z,-4.50
2018-02-20T01:03:52.563Z,-4.50
2018-02-20T01:06:20.102Z,-4.60
2018-02-20T01:08:48.388Z,-4.60
2018-02-20T01:11:15.925Z,-4.60
2018-02-20T01:13:44.215Z,-4.60
2018-02-20T01:16:12.521Z,-4.70
2018-02-20T01:18:40.042Z,-4.70
2018-02-20T01:21:08.354Z,-4.70
2018-02-20T01:23:35.922Z,-4.70
2018-02-20T01:26:03.441Z,-4.70
2018-02-20T01:28:31.743Z,-4.70
2018-02-20T01:30:59.266Z,-4.70
2018-02-20T01:33:26.834Z,-4.80
2018-02-20T01:35:54.365Z,-4.80
2018-02-20T01:38:21.904Z,-4.80
2018-02-20T01:40:49.468Z,-4.90
2018-02-20T01:43:17.020Z,-4.90
2018-02-20T01:45:44.547Z,-4.90
2018-02-20T01:48:12.862Z,-4.90
2018-02-20T01:53:32.157Z,-4.90
2018-02-20T01:55:59.681Z,-4.90
2018-02-20T01:58:27.995Z,-5.00
2018-02-20T02:00:55.513Z,-5.00
2018-02-20T02:03:23.806Z,-5.00
2018-02-20T02:05:51.345Z,-5.00
2018-02-20T02:08:19.629Z,-5.10
2018-02-20T02:10:47.940Z,-5.10
2018-02-20T02:13:15.461Z,-5.10
2018-02-20T02:15:43.218Z,-5.10
2018-02-20T02:18:10.742Z,-5.10
2018-02-20T02:20:38.287Z,-5.10
2018-02-20T02:23:05.810Z,-5.10
2018-02-20T02:25:34.130Z,-5.10
2018-02-20T02:28:01.644Z,-5.10
2018-02-20T02:30:29.933Z,-5.10
2018-02-20T02:32:58.232Z,-5.20
2018-02-20T02:35:25.754Z,-5.20
2018-02-20T02:37:53.293Z,-5.20
2018-02-20T02:40:20.809Z,-5.20
2018-02-20T02:42:48.362Z,-5.20
2018-02-20T02:45:16.654Z,-5.30
2018-02-20T02:47:44.203Z,-5.30
2018-02-20T02:50:12.485Z,-5.30
2018-02-20T02:52:40.018Z,-5.30
2018-02-20T02:55:07.571Z,-5.30
2018-02-20T02:57:35.090Z,-5.30
2018-02-20T03:00:02.640Z,-5.30
2018-02-20T03:02:30.177Z,-5.30
2018-02-20T03:04:58.489Z,-5.40
2018-02-20T03:07:26.010Z,-5.40
2018-02-20T03:09:54.317Z,-5.40
2018-02-20T03:12:21.833Z,-5.40
2018-02-20T03:14:49.374Z,-5.40
2018-02-20T03:17:16.890Z,-5.40
2018-02-20T03:19:44.424Z,-5.40
2018-02-20T03:22:11.960Z,-5.40
2018-02-20T03:24:39.482Z,-5.40
2018-02-20T03:27:07.024Z,-5.40
2018-02-20T03:29:35.305Z,-5.40
2018-02-20T03:32:03.608Z,-5.40
2018-02-20T03:34:31.138Z,-5.40
2018-02-20T03:36:59.437Z,-5.40
2018-02-20T03:39:26.957Z,-5.40
2018-02-20T03:41:54.487Z,-5.50
2018-02-20T03:44:22.003Z,-5.50
2018-02-20T03:46:49.545Z,-5.50
2018-02-20T03:49:17.854Z,-5.40
2018-02-20T03:51:45.377Z,-5.50
2018-02-20T03:54:12.921Z,-5.40
2018-02-20T03:56:40.447Z,-5.40
2018-02-20T03:59:07.998Z,-5.30
2018-02-20T04:01:35.521Z,-5.20
2018-02-20T04:04:03.065Z,-5.20
2018-02-20T04:06:30.585Z,-5.20
2018-02-20T04:08:58.125Z,-5.20
2018-02-20T04:11:25.641Z,-5.20
2018-02-20T04:13:53.181Z,-5.20
2018-02-20T04:16:20.706Z,-5.20
2018-02-20T04:18:48.242Z,-5.20
2018-02-20T04:21:16.533Z,-5.20
2018-02-20T04:23:44.838Z,-5.20
2018-02-20T04:26:12.357Z,-5.20
2018-02-20T04:28:40.664Z,-5.30
2018-02-20T04:31:08.180Z,-5.30
2018-02-20T04:33:35.728Z,-5.40
2018-02-20T04:36:03.250Z,-5.40
2018-02-20T04:38:30.772Z,-5.40
2018-02-20T04:40:58.309Z,-5.50
2018-02-20T04:43:25.829Z,-5.50
2018-02-20T04:45:53.365Z,-5.60
2018-02-20T04:48:21.649Z,-5.60
2018-02-20T04:50:50.058Z,-5.60
2018-02-20T04:53:17.625Z,-5.60
2018-02-20T04:55:45.163Z,-5.60
2018-02-20T04:58:12.681Z,-5.50
2018-02-20T05:00:40.311Z,-5.50
2018-02-20T05:03:07.829Z,-5.50
2018-02-20T05:05:36.146Z,-5.40
2018-02-20T05:08:03.672Z,-5.40
2018-02-20T05:10:31.978Z,-5.30
2018-02-20T05:12:59.544Z,-5.30
2018-02-20T05:15:27.090Z,-5.30
2018-02-20T05:17:54.606Z,-5.20
2018-02-20T05:20:22.141Z,-5.10
2018-02-20T05:22:49.684Z,-5.00
2018-02-20T05:25:17.241Z,-4.90
2018-02-20T05:27:44.777Z,-4.80
2018-02-20T05:30:13.057Z,-4.70
2018-02-20T05:32:41.368Z,-4.60
2018-02-20T05:35:08.921Z,-4.60
2018-02-20T05:37:36.461Z,-4.60
2018-02-20T05:40:04.050Z,-4.60
2018-02-20T05:42:31.592Z,-4.60
2018-02-20T05:44:59.108Z,-4.60
2018-02-20T05:47:26.645Z,-4.60
2018-02-20T05:49:54.166Z,-4.60
2018-02-20T05:52:21.750Z,-4.70
2018-02-20T05:54:49.269Z,-4.70
2018-02-20T05:57:17.589Z,-4.70
2018-02-20T05:59:45.130Z,-4.70
2018-02-20T06:02:12.654Z,-4.70
2018-02-20T06:04:40.271Z,-4.70
2018-02-20T06:07:07.833Z,-4.70
2018-02-20T06:09:35.450Z,-4.70
2018-02-20T06:12:02.962Z,-4.70
2018-02-20T06:14:30.521Z,-4.70
2018-02-20T06:16:58.072Z,-4.70
2018-02-20T06:19:25.637Z,-4.60
2018-02-20T06:21:53.202Z,-4.60
2018-02-20T06:24:20.859Z,-4.50
2018-02-20T06:26:48.377Z,-4.50
2018-02-20T06:29:16.686Z,-4.50
2018-02-20T06:31:44.210Z,-4.50
2018-02-20T06:34:11.824Z,-4.50
2018-02-20T06:36:39.347Z,-4.40
2018-02-20T06:39:07.650Z,-4.40
2018-02-20T06:41:35.164Z,-4.40
2018-02-20T06:44:02.705Z,-4.40
2018-02-20T06:46:30.235Z,-4.30
2018-02-20T06:48:57.773Z,-4.30
2018-02-20T06:51:26.079Z,-4.10
2018-02-20T06:53:53.595Z,-4.20
2018-02-20T06:56:21.902Z,-4.00
2018-02-20T06:58:49.422Z,-4.00
2018-02-20T07:01:17.726Z,-3.80
2018-02-20T07:03:46.013Z,-3.80
2018-02-20T07:06:13.549Z,-3.80
2018-02-20T07:08:41.871Z,-3.60
2018-02-20T07:11:09.416Z,-3.70
2018-02-20T07:13:36.932Z,-3.60
2018-02-20T07:16:04.555Z,-3.50
2018-02-20T07:18:32.078Z,-3.50
2018-02-20T07:21:00.390Z,-3.30
2018-02-20T07:23:27.953Z,-3.30
2018-02-20T07:25:55.498Z,-3.20
2018-02-20T07:28:23.073Z,-3.10
2018-02-20T07:30:50.617Z,-3.10
2018-02-20T07:33:18.143Z,-3.00
2018-02-20T07:35:45.686Z,-2.80
2018-02-20T07:38:13.209Z,-2.70
2018-02-20T07:40:40.728Z,-2.60
2018-02-20T07:43:08.270Z,-2.40
2018-02-20T07:45:35.796Z,-2.30
2018-02-20T07:48:03.341Z,-2.20
2018-02-20T07:50:31.636Z,-1.90
2018-02-20T07:52:59.177Z,-1.90
2018-02-20T07:55:27.466Z,-1.50
2018-02-20T07:57:55.044Z,-1.60
2018-02-20T08:00:22.576Z,-1.40
2018-02-20T08:02:50.885Z,-1.10
2018-02-20T08:05:18.410Z,-1.10
2018-02-20T08:07:46.723Z,-0.70
2018-02-20T08:10:14.242Z,-0.80
2018-02-20T08:12:42.551Z,-0.50
2018-02-20T08:15:10.074Z,-0.50
2018-02-20T08:17:37.623Z,-0.30
2018-02-20T08:20:05.138Z,0.00
2018-02-20T08:22:32.674Z,0.10
2018-02-20T08:25:00.958Z,0.50
2018-02-20T08:27:29.367Z,0.70
2018-02-20T08:29:56.884Z,0.70
2018-02-20T08:32:25.164Z,0.80
2018-02-20T08:34:53.467Z,0.90
2018-02-20T08:37:20.995Z,0.90
2018-02-20T08:39:48.540Z,1.10
2018-02-20T08:42:16.072Z,1.40
2018-02-20T08:44:43.614Z,2.10
2018-02-20T08:47:11.139Z,3.20
2018-02-20T08:49:38.756Z,3.90
2018-02-20T08:52:06.287Z,4.40
2018-02-20T08:54:33.879Z,4.90
2018-02-20T08:57:01.410Z,5.70
2018-02-20T08:59:29.021Z,6.30
2018-02-20T09:01:56.557Z,7.10
2018-02-20T09:04:24.115Z,7.70
2018-02-20T09:06:51.682Z,8.50
2018-02-20T09:09:19.246Z,8.90
2018-02-20T09:11:46.809Z,9.50
2018-02-20T09:14:14.365Z,10.30
2018-02-20T09:16:41.906Z,10.80
2018-02-20T09:19:10.210Z,11.80
2018-02-20T09:21:37.752Z,11.70
2018-02-20T09:24:05.329Z,12.10
2018-02-20T09:26:32.893Z,12.40
2018-02-20T09:29:00.410Z,12.90
2018-02-20T09:31:28.719Z,13.30
2018-02-20T09:33:56.295Z,13.30
2018-02-20T09:36:23.833Z,13.50
2018-02-20T09:38:52.112Z,13.30
2018-02-20T09:41:20.413Z,13.60
2018-02-20T09:43:47.982Z,13.60
2018-02-20T09:46:15.537Z,14.00
2018-02-20T09:48:43.069Z,14.20
2018-02-20T09:51:10.593Z,14.20
2018-02-20T09:53:39.652Z,12.70
2018-02-20T09:56:07.169Z,12.70
2018-02-20T09:58:34.703Z,11.80
2018-02-20T10:01:02.222Z,10.80
2018-02-20T10:03:29.761Z,9.60
2018-02-20T10:05:58.046Z,7.50
2018-02-20T10:08:25.584Z,7.40
2018-02-20T10:10:53.156Z,7.10
2018-02-20T10:13:20.667Z,7.20
2018-02-20T10:15:48.187Z,7.30
2018-02-20T10:18:16.502Z,6.50
2018-02-20T10:20:44.140Z,6.50
2018-02-20T10:23:11.677Z,6.40
2018-02-20T10:25:39.957Z,5.80
2018-02-20T10:28:08.275Z,5.60
2018-02-20T10:30:35.797Z,5.60
2018-02-20T10:33:04.114Z,5.00
2018-02-20T10:35:31.630Z,5.00
2018-02-20T10:37:59.933Z,5.30
2018-02-20T10:40:27.470Z,5.20
2018-02-20T10:42:55.793Z,7.00
2018-02-20T10:45:23.320Z,7.00
2018-02-20T10:47:50.835Z,7.40
2018-02-20T10:50:18.474Z,7.70
2018-02-20T10:52:45.995Z,8.20
2018-02-20T10:55:14.305Z,8.50
2018-02-20T10:57:41.821Z,8.50
2018-02-20T11:00:11.815Z,8.30
2018-02-20T11:02:39.339Z,8.10
2018-02-20T11:05:06.921Z,7.90
2018-02-20T11:07:34.442Z,7.40
2018-02-20T11:10:02.759Z,6.90
2018-02-20T11:12:30.273Z,6.90
2018-02-20T11:14:57.880Z,7.00
2018-02-20T11:17:25.401Z,7.60
2018-02-20T11:19:53.709Z,8.00
2018-02-20T11:22:21.281Z,8.00
2018-02-20T11:24:48.822Z,7.90
2018-02-20T11:27:16.346Z,7.70
2018-02-20T11:29:43.962Z,7.50
2018-02-20T11:32:11.533Z,7.40
2018-02-20T11:34:39.083Z,7.20
2018-02-20T11:37:06.598Z,6.80
2018-02-20T11:39:34.117Z,6.60
2018-02-20T11:42:01.649Z,6.40
2018-02-20T11:44:29.168Z,6.30
2018-02-20T11:46:56.713Z,6.20
2018-02-20T11:49:24.234Z,5.90
2018-02-20T11:51:51.783Z,5.50
2018-02-20T11:54:20.068Z,5.20
2018-02-20T11:56:48.374Z,5.50
2018-02-20T11:59:15.894Z,5.40
2018-02-20T12:01:44.210Z,5.80
2018-02-20T12:04:11.733Z,5.80
2018-02-20T12:06:40.056Z,5.10
2018-02-20T12:09:07.578Z,5.10
2018-02-20T12:11:35.894Z,4.40
2018-02-20T12:14:03.465Z,4.40
2018-02-20T12:16:31.021Z,4.20
2018-02-20T12:18:58.558Z,4.10
2018-02-20T12:21:26.084Z,4.00
2018-02-20T12:23:53.626Z,3.80
2018-02-20T12:26:21.154Z,3.40
2018-02-20T12:28:48.718Z,3.30
2018-02-20T12:31:16.240Z,3.30
2018-02-20T12:33:44.562Z,3.10
2018-02-20T12:36:12.088Z,3.10
2018-02-20T12:38:40.502Z,3.10
2018-02-20T12:41:08.069Z,3.10
2018-02-20T12:43:35.614Z,3.10
2018-02-20T12:46:03.189Z,3.00
2018-02-20T12:48:30.728Z,3.00
2018-02-20T12:50:58.250Z,3.00
2018-02-20T12:53:25.876Z,2.90
2018-02-20T12:55:53.405Z,2.90
2018-02-20T12:58:21.690Z,2.70
2018-02-20T13:00:49.229Z,2.60
2018-02-20T13:03:16.840Z,2.50
2018-02-20T13:05:44.399Z,2.40
2018-02-20T13:08:11.912Z,2.40
2018-02-20T13:10:39.523Z,2.50
2018-02-20T13:13:07.062Z,2.60
2018-02-20T13:15:35.367Z,2.50
2018-02-20T13:18:02.893Z,2.50
2018-02-20T13:20:31.197Z,2.50
2018-02-20T13:22:58.713Z,2.50
2018-02-20T13:25:26.336Z,2.50
2018-02-20T13:27:53.854Z,2.60
2018-02-20T13:30:22.269Z,2.70
2018-02-20T13:32:49.792Z,2.70
2018-02-20T13:35:18.070Z,2.50
2018-02-20T13:37:46.374Z,2.30
2018-02-20T13:40:13.949Z,2.30
2018-02-20T13:42:41.490Z,2.20
2018-02-20T13:45:09.075Z,2.10
2018-02-20T13:47:36.637Z,2.10
2018-02-20T13:50:04.155Z,2.20
2018-02-20T13:52:32.479Z,2.40
2018-02-20T13:55:00.012Z,2.40
2018-02-20T13:57:27.602Z,2.40
2018-02-20T13:59:55.169Z,2.50
2018-02-20T14:02:22.711Z,2.50
2018-02-20T14:04:50.236Z,2.30
2018-02-20T14:07:17.774Z,2.20
2018-02-20T14:09:45.408Z,2.10
2018-02-20T14:12:12.946Z,2.10
2018-02-20T14:14:40.469Z,2.00
2018-02-20T14:17:08.023Z,2.00
2018-02-20T14:19:35.549Z,2.10
2018-02-20T14:22:03.123Z,2.20
2018-02-20T14:24:30.666Z,2.40
2018-02-20T14:26:58.237Z,2.40
2018-02-20T14:29:25.797Z,2.40
2018-02-20T14:31:53.361Z,2.40
2018-02-20T14:34:20.902Z,2.40
2018-02-20T14:36:48.424Z,2.40
2018-02-20T14:39:15.961Z,2.50
2018-02-20T14:41:43.486Z,2.50
2018-02-20T14:44:11.062Z,2.30
2018-02-20T14:46:38.587Z,2.20
2018-02-20T14:49:06.894Z,2.20
2018-02-20T14:51:34.470Z,2.20
2018-02-20T14:54:02.028Z,2.10
2018-02-20T14:56:29.593Z,2.00
2018-02-20T14:58:57.130Z,1.80
2018-02-20T15:01:24.653Z,1.70
2018-02-20T15:03:52.205Z,1.70
2018-02-20T15:06:19.841Z,1.70
2018-02-20T15:08:47.399Z,1.70
2018-02-20T15:11:14.950Z,1.60
2018-02-20T15:13:42.474Z,1.60
2018-02-20T15:16:10.782Z,1.50
2018-02-20T15:18:38.310Z,1.50
2018-02-20T15:21:05.845Z,1.60
2018-02-20T15:23:33.382Z,1.60
2018-02-20T15:26:00.922Z,1.50
2018-02-20T15:28:28.441Z,1.60
2018-02-20T15:30:55.981Z,1.50
2018-02-20T15:33:23.502Z,1.50
2018-02-20T15:35:51.042Z,1.40
2018-02-20T15:38:19.361Z,1.50
2018-02-20T15:40:46.898Z,1.40
2018-02-20T15:43:14.492Z,1.40
2018-02-20T15:45:42.033Z,1.30
2018-02-20T15:48:09.549Z,1.30
2018-02-20T15:50:37.092Z,1.30
2018-02-20T15:53:04.613Z,1.40
2018-02-20T15:55:32.190Z,1.30
2018-02-20T15:57:59.709Z,1.30
2018-02-20T16:00:28.010Z,1.30
2018-02-20T16:02:55.589Z,1.30
2018-02-20T16:05:23.130Z,1.20
2018-02-20T16:07:50.646Z,1.20
2018-02-20T16:10:18.167Z,1.10
2018-02-20T16:12:45.705Z,1.10
2018-02-20T16:15:13.989Z,1.10
2018-02-20T16:17:41.528Z,1.10
2018-02-20T16:20:09.050Z,1.10
2018-02-20T16:22:36.590Z,1.00
2018-02-20T16:25:04.106Z,1.00
2018-02-20T16:27:31.645Z,1.00
2018-02-20T16:29:59.166Z,1.00
2018-02-20T16:32:26.710Z,1.00
2018-02-20T16:34:55.023Z,1.00
2018-02-20T16:37:22.558Z,0.90
2018-02-20T16:39:50.868Z,0.90
2018-02-20T16:42:18.414Z,0.90
2018-02-20T16:44:45.951Z,0.90
2018-02-20T16:49:48.176Z,0.80
2018-02-20T16:52:15.691Z,0.80
2018-02-20T16:54:43.994Z,0.90
2018-02-20T16:57:11.510Z,0.80
2018-02-20T16:59:39.062Z,0.80
2018-02-20T17:02:06.580Z,0.80
2018-02-20T17:04:34.113Z,0.80
2018-02-20T17:07:01.634Z,0.80
2018-02-20T17:09:29.277Z,0.80
2018-02-20T17:11:56.796Z,0.80
2018-02-20T17:14:25.118Z,0.70
2018-02-20T17:16:52.682Z,0.70
2018-02-20T17:19:20.222Z,0.70
2018-02-20T17:21:47.798Z,0.70
2018-02-20T17:24:15.332Z,0.70
2018-02-20T17:26:43.609Z,0.70
2018-02-20T17:29:11.912Z,0.70
2018-02-20T17:31:39.465Z,0.60
2018-02-20T17:34:06.998Z,0.70
2018-02-20T17:36:35.281Z,0.60
2018-02-20T17:39:03.631Z,0.60
2018-02-20T17:41:31.127Z,0.60
2018-02-20T17:43:58.657Z,0.50
2018-02-20T17:46:26.171Z,0.50
2018-02-20T17:48:53.708Z,0.50
2018-02-20T17:51:21.229Z,0.50
2018-02-20T17:53:48.746Z,0.50
2018-02-20T17:56:16.306Z,0.40
2018-02-20T17:58:43.832Z,0.50
2018-02-20T18:01:12.141Z,0.40
2018-02-20T18:03:39.705Z,0.40
2018-02-20T18:06:07.242Z,0.40
2018-02-20T18:08:34.768Z,0.40
2018-02-20T18:11:02.308Z,0.40
2018-02-20T18:13:29.829Z,0.40
2018-02-20T18:15:57.405Z,0.40
2018-02-20T18:18:24.970Z,0.40
2018-02-20T18:20:52.513Z,0.40
2018-02-20T18:23:20.029Z,0.40
2018-02-20T18:25:47.546Z,0.30
2018-02-20T18:28:15.529Z,0.30
2018-02-20T18:30:43.050Z,0.30
2018-02-20T18:33:11.349Z,0.30
2018-02-20T18:35:38.906Z,0.30
2018-02-20T18:38:06.471Z,0.30
2018-02-20T18:40:34.035Z,0.30
2018-02-20T18:43:01.569Z,0.30
2018-02-20T18:45:29.855Z,0.30
2018-02-20T18:47:57.389Z,0.30
2018-02-20T18:50:24.897Z,0.30
2018-02-20T18:52:52.436Z,0.30
2018-02-20T18:55:19.949Z,0.30
2018-02-20T18:57:47.490Z,0.20
2018-02-20T19:00:15.010Z,0.30
2018-02-20T19:02:42.697Z,0.30
2018-02-20T19:05:10.259Z,0.20
2018-02-20T19:07:37.815Z,0.20
2018-02-20T19:10:05.336Z,0.20
2018-02-20T19:12:34.017Z,0.10
2018-02-20T19:15:01.935Z,0.10
2018-02-20T19:17:31.130Z,0.00
2018-02-20T19:19:59.305Z,0.10
2018-02-20T19:22:27.238Z,0.10
2018-02-20T19:24:55.359Z,0.10
2018-02-20T19:27:22.884Z,0.10
2018-02-20T19:29:50.422Z,0.00
2018-02-20T19:32:18.718Z,-0.10
2018-02-20T19:34:47.022Z,-0.10
2018-02-20T19:37:14.538Z,-0.20
2018-02-20T19:39:42.841Z,-0.30
2018-02-20T19:42:10.369Z,-0.40
2018-02-20T19:44:37.908Z,-0.40
2018-02-20T19:47:05.437Z,-0.40
2018-02-20T19:49:32.977Z,-0.50
2018-02-20T19:52:00.562Z,-0.50
2018-02-20T19:54:28.112Z,-0.50
2018-02-20T19:56:55.649Z,-0.60
2018-02-20T19:59:23.965Z,-0.60
2018-02-20T20:01:51.518Z,-0.60
2018-02-20T20:04:19.076Z,-0.60
2018-02-20T20:06:46.640Z,-0.60
2018-02-20T20:09:14.198Z,-0.70
2018-02-20T20:11:41.734Z,-0.70
2018-02-20T20:14:09.258Z,-0.60
2018-02-20T20:16:36.802Z,-0.70
2018-02-20T20:19:04.355Z,-0.60
2018-02-20T20:21:32.035Z,-0.60
2018-02-20T20:23:59.562Z,-0.60
2018-02-20T20:26:27.101Z,-0.70
2018-02-20T20:28:54.627Z,-0.70
2018-02-20T20:31:22.166Z,-0.70
2018-02-20T20:33:49.698Z,-0.70
2018-02-20T20:36:17.238Z,-0.70
2018-02-20T20:38:44.764Z,-0.70
2018-02-20T20:41:12.385Z,-0.70
2018-02-20T20:43:39.922Z,-0.70
2018-02-20T20:46:07.462Z,-0.60
2018-02-20T20:48:35.753Z,-0.60
2018-02-20T20:51:03.850Z,-0.60
2018-02-20T20:53:31.369Z,-0.60
2018-02-20T20:55:59.677Z,-0.50
2018-02-20T20:58:27.204Z,-0.50
2018-02-20T21:00:55.509Z,-0.50
2018-02-20T21:03:23.029Z,-0.50
2018-02-20T21:05:50.574Z,-0.40
2018-02-20T21:08:18.093Z,-0.40
2018-02-20T21:10:45.637Z,-0.40
2018-02-20T21:13:13.226Z,-0.40
2018-02-20T21:15:40.746Z,-0.40
2018-02-20T21:18:09.052Z,-0.40
2018-02-20T21:20:36.578Z,-0.40
2018-02-20T21:23:04.898Z,-0.40
2018-02-20T21:25:32.417Z,-0.40
2018-02-20T21:28:00.738Z,-0.40
2018-02-20T21:30:28.294Z,-0.40
2018-02-20T21:32:55.847Z,-0.40
2018-02-20T21:35:23.522Z,-0.40
2018-02-20T21:37:51.067Z,-0.40
2018-02-20T21:40:18.594Z,-0.40
2018-02-20T21:42:46.925Z,-0.30
2018-02-20T21:45:14.453Z,-0.30
2018-02-20T21:47:42.043Z,-0.30
2018-02-20T21:50:09.569Z,-0.30
2018-02-20T21:52:37.886Z,-0.40
2018-02-20T21:55:05.412Z,-0.40
2018-02-20T21:57:32.962Z,-0.30
2018-02-20T22:00:01.250Z,-0.40
2018-02-20T22:02:28.798Z,-0.40
2018-02-20T22:04:57.110Z,-0.40
2018-02-20T22:07:24.657Z,-0.40
2018-02-20T22:09:52.182Z,-0.50
2018-02-20T22:12:19.708Z,-0.50
2018-02-20T22:14:47.251Z,-0.50
2018-02-20T22:17:14.777Z,-0.50
2018-02-20T22:19:42.325Z,-0.60
2018-02-20T22:22:10.651Z,-0.70
2018-02-20T22:24:38.197Z,-0.70
2018-02-20T22:27:05.769Z,-0.80
2018-02-20T22:29:33.404Z,-0.80
2018-02-20T22:32:00.925Z,-0.90
2018-02-20T22:34:28.550Z,-0.90
2018-02-20T22:36:56.079Z,-0.90
2018-02-20T22:39:24.389Z,-1.00
2018-02-20T22:41:51.910Z,-1.00
2018-02-20T22:44:20.213Z,-1.10
2018-02-20T22:46:47.741Z,-1.10
2018-02-20T22:49:16.066Z,-1.00
2018-02-20T22:51:43.608Z,-1.00
2018-02-20T22:54:11.134Z,-1.10
2018-02-20T22:56:38.682Z,-1.10
2018-02-20T22:59:06.312Z,-1.10
2018-02-20T23:01:33.854Z,-1.10
2018-02-20T23:04:01.373Z,-1.10
2018-02-20T23:06:28.918Z,-1.10
2018-02-20T23:08:56.547Z,-1.10
2018-02-20T23:11:36.056Z,-1.20
2018-02-20T23:14:04.391Z,-1.20
2018-02-20T23:16:31.935Z,-1.30
2018-02-20T23:18:59.453Z,-1.30
2018-02-20T23:21:27.763Z,-1.30
2018-02-20T23:23:55.282Z,-1.30
2018-02-20T23:26:23.600Z,-1.30
2018-02-20T23:28:51.161Z,-1.30
2018-02-20T23:31:18.705Z,-1.40
2018-02-20T23:33:46.229Z,-1.40
2018-02-20T23:36:13.745Z,-1.40
2018-02-20T23:38:41.310Z,-1.40
2018-02-20T23:41:08.866Z,-1.50
2018-02-20T23:43:36.390Z,-1.50
2018-02-20T23:46:03.914Z,-1.40
2018-02-20T23:48:31.456Z,-1.40
2018-02-20T23:51:04.593Z,-1.50
2018-02-20T23:53:32.210Z,-1.60
2018-02-20T23:55:59.744Z,-1.60
2018-02-20T23:58:27.429Z,-1.60
